sensor_id;sensor_type;location;lat;lon;timestamp;pressure;altitude;pressure_sealevel;temperature;humidity
2549;BME280;1284;53.520;10.248;2023-02-19T00:01:18;100759.06;;;7.61;99.35
2549;BME280;1284;53.520;10.248;2023-02-19T00:03:48;100757.53;;;7.60;99.39
2549;BME280;1284;53.520;10.248;2023-02-19T00:06:17;100762.22;;;7.63;99.18
2549;BME280;1284;53.520;10.248;2023-02-19T00:08:42;100755.41;;;7.65;99.16
2549;BME280;1284;53.520;10.248;2023-02-19T00:11:13;100762.47;;;7.70;98.52
2549;BME280;1284;53.520;10.248;2023-02-19T00:13:40;100764.34;;;7.69;98.94
2549;BME280;1284;53.520;10.248;2023-02-19T00:18:53;100764.34;;;7.69;98.55
2549;BME280;1284;53.520;10.248;2023-02-19T00:21:20;100757.91;;;7.70;98.70
2549;BME280;1284;53.520;10.248;2023-02-19T00:23:53;100750.16;;;7.69;98.66
2549;BME280;1284;53.520;10.248;2023-02-19T00:26:20;100759.44;;;7.71;98.36
2549;BME280;1284;53.520;10.248;2023-02-19T00:28:48;100743.69;;;7.70;98.44
2549;BME280;1284;53.520;10.248;2023-02-19T00:33:40;100748.81;;;7.63;98.50
2549;BME280;1284;53.520;10.248;2023-02-19T00:36:06;100744.91;;;7.60;98.64
2549;BME280;1284;53.520;10.248;2023-02-19T00:38:35;100743.13;;;7.64;98.79
2549;BME280;1284;53.520;10.248;2023-02-19T00:41:01;100743.59;;;7.66;99.00
2549;BME280;1284;53.520;10.248;2023-02-19T00:46:14;100735.66;;;7.70;98.48
2549;BME280;1284;53.520;10.248;2023-02-19T00:48:40;100748.50;;;7.64;98.53
2549;BME280;1284;53.520;10.248;2023-02-19T00:51:05;100745.81;;;7.64;99.06
2549;BME280;1284;53.520;10.248;2023-02-19T00:53:31;100748.28;;;7.69;98.49
2549;BME280;1284;53.520;10.248;2023-02-19T00:55:56;100743.91;;;7.65;99.17
2549;BME280;1284;53.520;10.248;2023-02-19T00:58:22;100752.84;;;7.69;98.89
2549;BME280;1284;53.520;10.248;2023-02-19T01:00:47;100757.44;;;7.68;98.94
2549;BME280;1284;53.520;10.248;2023-02-19T01:03:13;100757.09;;;7.70;98.79
2549;BME280;1284;53.520;10.248;2023-02-19T01:05:39;100763.25;;;7.70;98.91
2549;BME280;1284;53.520;10.248;2023-02-19T01:08:05;100760.56;;;7.70;99.29
2549;BME280;1284;53.520;10.248;2023-02-19T01:10:30;100768.28;;;7.72;98.47
2549;BME280;1284;53.520;10.248;2023-02-19T01:12:56;100765.94;;;7.70;98.49
2549;BME280;1284;53.520;10.248;2023-02-19T01:15:21;100760.44;;;7.67;99.03
2549;BME280;1284;53.520;10.248;2023-02-19T01:17:46;100761.78;;;7.73;98.70
2549;BME280;1284;53.520;10.248;2023-02-19T01:20:12;100772.72;;;7.68;98.58
2549;BME280;1284;53.520;10.248;2023-02-19T01:22:37;100768.03;;;7.65;99.09
2549;BME280;1284;53.520;10.248;2023-02-19T01:25:05;100766.25;;;7.69;98.81
2549;BME280;1284;53.520;10.248;2023-02-19T01:27:30;100763.03;;;7.75;98.07
2549;BME280;1284;53.520;10.248;2023-02-19T01:29:56;100759.06;;;7.61;98.44
2549;BME280;1284;53.520;10.248;2023-02-19T01:32:21;100760.19;;;7.60;98.99
2549;BME280;1284;53.520;10.248;2023-02-19T01:34:46;100758.78;;;7.62;99.56
2549;BME280;1284;53.520;10.248;2023-02-19T01:37:12;100758.44;;;7.64;99.44
2549;BME280;1284;53.520;10.248;2023-02-19T01:39:38;100762.34;;;7.66;98.56
2549;BME280;1284;53.520;10.248;2023-02-19T01:42:06;100753.84;;;7.64;98.91
2549;BME280;1284;53.520;10.248;2023-02-19T01:47:01;100756.97;;;7.21;100.00
2549;BME280;1284;53.520;10.248;2023-02-19T01:49:29;100766.03;;;7.29;100.00
2549;BME280;1284;53.520;10.248;2023-02-19T01:54:24;100767.63;;;7.42;100.00
2549;BME280;1284;53.520;10.248;2023-02-19T01:56:51;100767.06;;;7.37;100.00
2549;BME280;1284;53.520;10.248;2023-02-19T01:59:17;100761.03;;;7.40;100.00
2549;BME280;1284;53.520;10.248;2023-02-19T02:01:43;100759.25;;;7.44;100.00
2549;BME280;1284;53.520;10.248;2023-02-19T02:04:11;100754.34;;;7.13;100.00
2549;BME280;1284;53.520;10.248;2023-02-19T02:06:55;100762.38;;;7.13;100.00
2549;BME280;1284;53.520;10.248;2023-02-19T02:09:26;100752.38;;;7.22;100.00
2549;BME280;1284;53.520;10.248;2023-02-19T02:12:10;100757.38;;;7.11;100.00
2549;BME280;1284;53.520;10.248;2023-02-19T02:14:40;100762.22;;;7.18;100.00
2549;BME280;1284;53.520;10.248;2023-02-19T02:30:52;100753.81;;;6.87;100.00
2549;BME280;1284;53.520;10.248;2023-02-19T02:38:39;100759.34;;;7.02;100.00
2549;BME280;1284;53.520;10.248;2023-02-19T02:41:06;100766.50;;;7.10;100.00
2549;BME280;1284;53.520;10.248;2023-02-19T02:43:32;100761.16;;;7.10;100.00
2549;BME280;1284;53.520;10.248;2023-02-19T02:45:58;100768.53;;;7.13;100.00
2549;BME280;1284;53.520;10.248;2023-02-19T02:51:09;100772.28;;;7.00;100.00
2549;BME280;1284;53.520;10.248;2023-02-19T02:53:51;100773.25;;;6.96;100.00
2549;BME280;1284;53.520;10.248;2023-02-19T02:56:38;100770.06;;;7.02;100.00
2549;BME280;1284;53.520;10.248;2023-02-19T02:59:07;100770.25;;;6.97;100.00
2549;BME280;1284;53.520;10.248;2023-02-19T03:01:38;100766.72;;;7.05;100.00
2549;BME280;1284;53.520;10.248;2023-02-19T03:13:15;100760.00;;;6.99;99.48
2549;BME280;1284;53.520;10.248;2023-02-19T03:16:14;100772.75;;;7.02;98.93
2549;BME280;1284;53.520;10.248;2023-02-19T03:19:00;100768.94;;;7.03;98.83
2549;BME280;1284;53.520;10.248;2023-02-19T03:24:38;100768.34;;;6.98;98.69
2549;BME280;1284;53.520;10.248;2023-02-19T03:27:27;100768.94;;;6.83;99.43
2549;BME280;1284;53.520;10.248;2023-02-19T03:29:57;100782.22;;;6.79;99.67
2549;BME280;1284;53.520;10.248;2023-02-19T03:32:29;100778.41;;;6.80;99.50
2549;BME280;1284;53.520;10.248;2023-02-19T03:35:01;100784.81;;;6.88;99.41
2549;BME280;1284;53.520;10.248;2023-02-19T03:37:53;100784.81;;;6.88;99.02
2549;BME280;1284;53.520;10.248;2023-02-19T03:40:28;100790.44;;;6.95;99.09
2549;BME280;1284;53.520;10.248;2023-02-19T03:43:09;100786.06;;;6.90;99.01
2549;BME280;1284;53.520;10.248;2023-02-19T03:45:54;100790.53;;;6.78;99.24
2549;BME280;1284;53.520;10.248;2023-02-19T03:51:04;100795.63;;;6.91;98.83
2549;BME280;1284;53.520;10.248;2023-02-19T03:59:23;100800.22;;;6.91;99.26
2549;BME280;1284;53.520;10.248;2023-02-19T04:01:55;100807.63;;;6.85;98.81
2549;BME280;1284;53.520;10.248;2023-02-19T04:04:30;100801.56;;;6.76;99.40
2549;BME280;1284;53.520;10.248;2023-02-19T04:06:57;100809.44;;;6.81;99.58
2549;BME280;1284;53.520;10.248;2023-02-19T04:09:29;100810.00;;;6.87;99.72
2549;BME280;1284;53.520;10.248;2023-02-19T04:12:04;100815.09;;;6.80;99.30
2549;BME280;1284;53.520;10.248;2023-02-19T04:14:51;100817.13;;;6.83;99.99
2549;BME280;1284;53.520;10.248;2023-02-19T04:17:34;100821.47;;;6.87;99.63
2549;BME280;1284;53.520;10.248;2023-02-19T04:20:05;100821.81;;;6.86;99.36
2549;BME280;1284;53.520;10.248;2023-02-19T04:22:32;100823.09;;;6.80;99.07
2549;BME280;1284;53.520;10.248;2023-02-19T04:24:59;100823.91;;;6.80;99.70
2549;BME280;1284;53.520;10.248;2023-02-19T04:27:25;100830.63;;;6.86;99.54
2549;BME280;1284;53.520;10.248;2023-02-19T04:29:50;100831.59;;;6.82;99.08
2549;BME280;1284;53.520;10.248;2023-02-19T04:32:16;100838.69;;;6.78;99.06
2549;BME280;1284;53.520;10.248;2023-02-19T04:34:41;100839.00;;;6.85;99.12
2549;BME280;1284;53.520;10.248;2023-02-19T04:39:32;100847.97;;;6.80;98.58
2549;BME280;1284;53.520;10.248;2023-02-19T04:41:58;100846.91;;;6.81;99.06
2549;BME280;1284;53.520;10.248;2023-02-19T04:44:23;100856.47;;;6.82;98.58
2549;BME280;1284;53.520;10.248;2023-02-19T04:46:49;100860.91;;;6.78;98.59
2549;BME280;1284;53.520;10.248;2023-02-19T04:49:14;100865.47;;;6.78;99.50
2549;BME280;1284;53.520;10.248;2023-02-19T04:51:40;100872.06;;;6.80;98.95
2549;BME280;1284;53.520;10.248;2023-02-19T04:54:06;100868.31;;;6.81;98.85
2549;BME280;1284;53.520;10.248;2023-02-19T04:56:31;100863.38;;;6.83;98.96
2549;BME280;1284;53.520;10.248;2023-02-19T04:58:57;100875.22;;;6.82;98.76
2549;BME280;1284;53.520;10.248;2023-02-19T05:01:23;100877.41;;;6.80;98.37
2549;BME280;1284;53.520;10.248;2023-02-19T05:03:49;100876.75;;;6.83;98.28
2549;BME280;1284;53.520;10.248;2023-02-19T05:06:14;100879.97;;;6.77;97.76
2549;BME280;1284;53.520;10.248;2023-02-19T05:08:40;100889.41;;;6.74;98.25
2549;BME280;1284;53.520;10.248;2023-02-19T05:11:07;100881.38;;;6.74;97.85
2549;BME280;1284;53.520;10.248;2023-02-19T05:13:35;100886.28;;;6.72;98.14
2549;BME280;1284;53.520;10.248;2023-02-19T05:16:06;100879.66;;;6.70;98.45
2549;BME280;1284;53.520;10.248;2023-02-19T05:18:32;100880.47;;;6.70;98.57
2549;BME280;1284;53.520;10.248;2023-02-19T05:20:59;100889.94;;;6.68;98.66
2549;BME280;1284;53.520;10.248;2023-02-19T05:23:25;100884.88;;;6.66;98.68
2549;BME280;1284;53.520;10.248;2023-02-19T05:25:51;100895.59;;;6.66;98.41
2549;BME280;1284;53.520;10.248;2023-02-19T05:28:17;100896.25;;;6.63;98.15
2549;BME280;1284;53.520;10.248;2023-02-19T05:30:47;100902.22;;;6.60;98.18
2549;BME280;1284;53.520;10.248;2023-02-19T05:33:13;100895.31;;;6.59;98.29
2549;BME280;1284;53.520;10.248;2023-02-19T05:35:40;100889.19;;;6.59;98.04
2549;BME280;1284;53.520;10.248;2023-02-19T05:38:06;100895.03;;;6.52;98.31
2549;BME280;1284;53.520;10.248;2023-02-19T05:40:32;100903.41;;;6.42;97.56
2549;BME280;1284;53.520;10.248;2023-02-19T05:42:58;100914.44;;;6.41;98.15
2549;BME280;1284;53.520;10.248;2023-02-19T05:45:23;100918.69;;;6.42;97.64
2549;BME280;1284;53.520;10.248;2023-02-19T05:47:49;100917.28;;;6.35;98.02
2549;BME280;1284;53.520;10.248;2023-02-19T05:50:14;100920.28;;;6.34;98.15
2549;BME280;1284;53.520;10.248;2023-02-19T05:52:40;100933.34;;;6.27;97.60
2549;BME280;1284;53.520;10.248;2023-02-19T05:55:05;100924.88;;;6.25;98.16
2549;BME280;1284;53.520;10.248;2023-02-19T05:57:31;100921.25;;;6.21;97.96
2549;BME280;1284;53.520;10.248;2023-02-19T05:59:56;100931.03;;;6.17;97.61
2549;BME280;1284;53.520;10.248;2023-02-19T06:02:21;100935.44;;;6.13;97.69
2549;BME280;1284;53.520;10.248;2023-02-19T06:04:47;100935.75;;;6.11;97.54
2549;BME280;1284;53.520;10.248;2023-02-19T06:07:12;100944.72;;;6.07;98.36
2549;BME280;1284;53.520;10.248;2023-02-19T06:09:38;100944.88;;;6.02;97.58
2549;BME280;1284;53.520;10.248;2023-02-19T06:12:03;100947.72;;;5.97;97.99
2549;BME280;1284;53.520;10.248;2023-02-19T06:14:29;100960.59;;;5.95;98.41
2549;BME280;1284;53.520;10.248;2023-02-19T06:16:54;100974.44;;;5.97;98.02
2549;BME280;1284;53.520;10.248;2023-02-19T06:19:19;100974.13;;;5.98;98.41
2549;BME280;1284;53.520;10.248;2023-02-19T06:21:45;100985.13;;;5.97;97.83
2549;BME280;1284;53.520;10.248;2023-02-19T06:24:10;100992.66;;;5.95;97.43
2549;BME280;1284;53.520;10.248;2023-02-19T06:26:37;100995.19;;;5.91;97.60
2549;BME280;1284;53.520;10.248;2023-02-19T06:29:02;100991.72;;;5.91;97.90
2549;BME280;1284;53.520;10.248;2023-02-19T06:31:28;100986.56;;;5.86;97.33
2549;BME280;1284;53.520;10.248;2023-02-19T06:33:54;101004.63;;;5.89;97.52
2549;BME280;1284;53.520;10.248;2023-02-19T06:36:20;101006.53;;;5.88;97.35
2549;BME280;1284;53.520;10.248;2023-02-19T06:38:45;101008.72;;;5.86;97.58
2549;BME280;1284;53.520;10.248;2023-02-19T06:41:11;101021.88;;;5.83;97.98
2549;BME280;1284;53.520;10.248;2023-02-19T06:43:39;101025.97;;;5.80;97.66
2549;BME280;1284;53.520;10.248;2023-02-19T06:48:51;101039.19;;;5.77;98.86
2549;BME280;1284;53.520;10.248;2023-02-19T06:51:18;101050.78;;;5.81;97.96
2549;BME280;1284;53.520;10.248;2023-02-19T06:53:47;101053.00;;;5.79;98.44
2549;BME280;1284;53.520;10.248;2023-02-19T06:58:55;101061.16;;;5.74;98.78
2549;BME280;1284;53.520;10.248;2023-02-19T07:01:22;101064.63;;;5.83;98.92
2549;BME280;1284;53.520;10.248;2023-02-19T07:06:34;101077.13;;;5.48;99.56
2549;BME280;1284;53.520;10.248;2023-02-19T07:09:00;101074.97;;;5.59;100.00
2549;BME280;1284;53.520;10.248;2023-02-19T07:11:28;101065.53;;;5.70;99.85
2549;BME280;1284;53.520;10.248;2023-02-19T07:13:55;101073.69;;;5.47;100.00
2549;BME280;1284;53.520;10.248;2023-02-19T07:16:21;101083.13;;;5.62;100.00
2549;BME280;1284;53.520;10.248;2023-02-19T07:18:47;101085.81;;;5.62;100.00
2549;BME280;1284;53.520;10.248;2023-02-19T07:21:14;101092.25;;;5.70;100.00
2549;BME280;1284;53.520;10.248;2023-02-19T07:23:40;101097.31;;;5.80;100.00
2549;BME280;1284;53.520;10.248;2023-02-19T07:26:14;101112.06;;;5.69;100.00
2549;BME280;1284;53.520;10.248;2023-02-19T07:28:41;101109.88;;;5.71;100.00
2549;BME280;1284;53.520;10.248;2023-02-19T07:31:07;101114.75;;;5.69;100.00
2549;BME280;1284;53.520;10.248;2023-02-19T07:36:20;101123.41;;;5.83;100.00
2549;BME280;1284;53.520;10.248;2023-02-19T07:38:46;101118.91;;;6.00;100.00
2549;BME280;1284;53.520;10.248;2023-02-19T07:41:12;101131.31;;;5.96;100.00
2549;BME280;1284;53.520;10.248;2023-02-19T07:43:38;101137.00;;;5.95;100.00
2549;BME280;1284;53.520;10.248;2023-02-19T07:46:09;101143.44;;;5.94;100.00
2549;BME280;1284;53.520;10.248;2023-02-19T07:48:36;101143.88;;;5.87;100.00
2549;BME280;1284;53.520;10.248;2023-02-19T07:51:03;101149.06;;;5.92;100.00
2549;BME280;1284;53.520;10.248;2023-02-19T07:53:29;101151.47;;;6.02;100.00
2549;BME280;1284;53.520;10.248;2023-02-19T07:55:59;101154.47;;;6.09;100.00
2549;BME280;1284;53.520;10.248;2023-02-19T07:58:25;101158.59;;;6.24;100.00
2549;BME280;1284;53.520;10.248;2023-02-19T08:00:51;101166.63;;;6.41;100.00
2549;BME280;1284;53.520;10.248;2023-02-19T08:03:16;101163.31;;;6.27;100.00
2549;BME280;1284;53.520;10.248;2023-02-19T08:05:42;101178.59;;;6.44;100.00
2549;BME280;1284;53.520;10.248;2023-02-19T08:08:10;101180.31;;;6.39;100.00
2549;BME280;1284;53.520;10.248;2023-02-19T08:10:36;101182.81;;;6.45;100.00
2549;BME280;1284;53.520;10.248;2023-02-19T08:13:21;101182.84;;;6.53;100.00
2549;BME280;1284;53.520;10.248;2023-02-19T08:15:54;101190.69;;;6.58;100.00
2549;BME280;1284;53.520;10.248;2023-02-19T08:18:23;101187.09;;;6.54;100.00
2549;BME280;1284;53.520;10.248;2023-02-19T08:20:49;101192.75;;;6.61;100.00
2549;BME280;1284;53.520;10.248;2023-02-19T08:23:15;101197.50;;;6.81;100.00
2549;BME280;1284;53.520;10.248;2023-02-19T08:28:08;101191.19;;;7.49;100.00
2549;BME280;1284;53.520;10.248;2023-02-19T08:30:35;101206.09;;;7.76;100.00
2549;BME280;1284;53.520;10.248;2023-02-19T08:33:03;101192.53;;;8.01;99.68
2549;BME280;1284;53.520;10.248;2023-02-19T08:35:28;101193.41;;;8.23;98.83
2549;BME280;1284;53.520;10.248;2023-02-19T08:37:55;101192.91;;;8.50;98.85
2549;BME280;1284;53.520;10.248;2023-02-19T08:43:12;101207.91;;;9.04;96.15
2549;BME280;1284;53.520;10.248;2023-02-19T08:45:39;101209.44;;;9.26;95.49
2549;BME280;1284;53.520;10.248;2023-02-19T08:48:05;101211.84;;;9.39;93.53
2549;BME280;1284;53.520;10.248;2023-02-19T08:50:31;101217.13;;;9.48;90.39
2549;BME280;1284;53.520;10.248;2023-02-19T08:53:00;101228.38;;;9.62;90.66
2549;BME280;1284;53.520;10.248;2023-02-19T08:55:26;101232.19;;;9.73;89.92
2549;BME280;1284;53.520;10.248;2023-02-19T08:57:52;101243.16;;;9.68;89.54
2549;BME280;1284;53.520;10.248;2023-02-19T09:00:18;101250.91;;;9.81;88.50
2549;BME280;1284;53.520;10.248;2023-02-19T09:02:45;101254.63;;;9.89;88.34
2549;BME280;1284;53.520;10.248;2023-02-19T09:05:11;101265.06;;;10.02;87.90
2549;BME280;1284;53.520;10.248;2023-02-19T09:07:37;101261.28;;;10.16;87.32
2549;BME280;1284;53.520;10.248;2023-02-19T09:10:03;101257.25;;;10.22;86.26
2549;BME280;1284;53.520;10.248;2023-02-19T09:12:29;101279.34;;;10.39;86.39
2549;BME280;1284;53.520;10.248;2023-02-19T09:14:54;101291.88;;;10.59;85.15
2549;BME280;1284;53.520;10.248;2023-02-19T09:17:20;101277.94;;;10.69;83.70
2549;BME280;1284;53.520;10.248;2023-02-19T09:19:45;101282.44;;;10.77;82.69
2549;BME280;1284;53.520;10.248;2023-02-19T09:22:11;101292.97;;;10.82;81.17
2549;BME280;1284;53.520;10.248;2023-02-19T09:24:36;101303.72;;;10.82;81.35
2549;BME280;1284;53.520;10.248;2023-02-19T09:27:02;101305.53;;;10.90;81.17
2549;BME280;1284;53.520;10.248;2023-02-19T09:29:27;101306.81;;;11.09;80.49
2549;BME280;1284;53.520;10.248;2023-02-19T09:31:57;101322.28;;;11.24;80.44
2549;BME280;1284;53.520;10.248;2023-02-19T09:34:24;101311.13;;;11.25;79.33
2549;BME280;1284;53.520;10.248;2023-02-19T09:36:50;101308.50;;;11.41;78.70
2549;BME280;1284;53.520;10.248;2023-02-19T09:39:16;101307.13;;;11.47;78.40
2549;BME280;1284;53.520;10.248;2023-02-19T09:41:51;101315.16;;;11.59;77.76
2549;BME280;1284;53.520;10.248;2023-02-19T09:44:29;101318.63;;;11.59;77.45
2549;BME280;1284;53.520;10.248;2023-02-19T09:46:59;101321.06;;;11.49;77.98
2549;BME280;1284;53.520;10.248;2023-02-19T09:49:29;101321.19;;;11.40;77.50
2549;BME280;1284;53.520;10.248;2023-02-19T09:54:44;101337.38;;;11.40;76.72
2549;BME280;1284;53.520;10.248;2023-02-19T09:57:14;101332.44;;;11.03;77.48
2549;BME280;1284;53.520;10.248;2023-02-19T09:59:45;101340.53;;;10.90;78.11
2549;BME280;1284;53.520;10.248;2023-02-19T10:02:15;101339.44;;;10.79;82.83
2549;BME280;1284;53.520;10.248;2023-02-19T10:04:42;101341.00;;;10.80;80.31
2549;BME280;1284;53.520;10.248;2023-02-19T10:07:13;101353.34;;;10.94;78.30
2549;BME280;1284;53.520;10.248;2023-02-19T10:09:39;101371.09;;;10.82;78.59
2549;BME280;1284;53.520;10.248;2023-02-19T10:12:13;101376.13;;;10.84;78.61
2549;BME280;1284;53.520;10.248;2023-02-19T10:14:52;101377.38;;;10.74;77.52
2549;BME280;1284;53.520;10.248;2023-02-19T10:17:26;101379.19;;;10.58;77.72
2549;BME280;1284;53.520;10.248;2023-02-19T10:19:54;101385.47;;;10.62;77.03
2549;BME280;1284;53.520;10.248;2023-02-19T10:22:21;101393.19;;;10.40;77.04
2549;BME280;1284;53.520;10.248;2023-02-19T10:27:17;101410.66;;;10.34;77.88
2549;BME280;1284;53.520;10.248;2023-02-19T10:29:45;101409.38;;;10.64;77.54
2549;BME280;1284;53.520;10.248;2023-02-19T10:32:22;101415.09;;;10.74;76.87
2549;BME280;1284;53.520;10.248;2023-02-19T10:37:33;101415.88;;;10.63;75.26
2549;BME280;1284;53.520;10.248;2023-02-19T10:39:59;101408.16;;;10.73;74.78
2549;BME280;1284;53.520;10.248;2023-02-19T10:42:25;101400.84;;;10.74;75.01
2549;BME280;1284;53.520;10.248;2023-02-19T10:44:58;101417.34;;;10.72;73.28
2549;BME280;1284;53.520;10.248;2023-02-19T10:47:27;101412.72;;;10.37;72.62
2549;BME280;1284;53.520;10.248;2023-02-19T10:49:58;101412.16;;;10.55;72.91
2549;BME280;1284;53.520;10.248;2023-02-19T10:52:32;101418.22;;;10.52;71.43
2549;BME280;1284;53.520;10.248;2023-02-19T10:57:45;101418.44;;;10.02;68.83
2549;BME280;1284;53.520;10.248;2023-02-19T11:02:39;101433.41;;;10.12;70.10
2549;BME280;1284;53.520;10.248;2023-02-19T11:07:38;101438.13;;;10.15;69.41
2549;BME280;1284;53.520;10.248;2023-02-19T11:12:54;101454.75;;;10.29;69.34
2549;BME280;1284;53.520;10.248;2023-02-19T11:15:27;101459.38;;;10.08;68.32
2549;BME280;1284;53.520;10.248;2023-02-19T11:17:57;101449.34;;;10.17;66.69
2549;BME280;1284;53.520;10.248;2023-02-19T11:20:27;101451.25;;;10.17;67.77
2549;BME280;1284;53.520;10.248;2023-02-19T11:22:58;101458.97;;;10.18;66.98
2549;BME280;1284;53.520;10.248;2023-02-19T11:25:25;101457.66;;;10.24;67.06
2549;BME280;1284;53.520;10.248;2023-02-19T11:35:41;101451.03;;;10.01;65.81
2549;BME280;1284;53.520;10.248;2023-02-19T11:38:09;101448.03;;;10.02;65.90
2549;BME280;1284;53.520;10.248;2023-02-19T11:40:43;101442.31;;;10.04;65.92
2549;BME280;1284;53.520;10.248;2023-02-19T11:43:14;101455.63;;;10.21;64.39
2549;BME280;1284;53.520;10.248;2023-02-19T11:48:35;101466.16;;;10.14;61.79
2549;BME280;1284;53.520;10.248;2023-02-19T11:54:05;101478.59;;;10.19;61.77
2549;BME280;1284;53.520;10.248;2023-02-19T11:56:35;101468.09;;;10.05;62.19
2549;BME280;1284;53.520;10.248;2023-02-19T12:18:14;101466.91;;;10.47;60.21
2549;BME280;1284;53.520;10.248;2023-02-19T12:25:56;101477.06;;;10.62;59.91
2549;BME280;1284;53.520;10.248;2023-02-19T12:43:00;101494.59;;;10.93;60.21
2549;BME280;1284;53.520;10.248;2023-02-19T12:45:40;101493.81;;;11.04;59.48
2549;BME280;1284;53.520;10.248;2023-02-19T12:48:15;101491.53;;;10.70;60.43
2549;BME280;1284;53.520;10.248;2023-02-19T12:50:44;101496.81;;;10.78;60.37
2549;BME280;1284;53.520;10.248;2023-02-19T12:56:08;101502.69;;;11.17;58.14
2549;BME280;1284;53.520;10.248;2023-02-19T12:58:40;101501.44;;;11.02;57.61
2549;BME280;1284;53.520;10.248;2023-02-19T13:01:10;101504.16;;;11.14;58.67
2549;BME280;1284;53.520;10.248;2023-02-19T13:08:54;101488.84;;;11.42;57.92
2549;BME280;1284;53.520;10.248;2023-02-19T13:11:31;101476.41;;;11.38;56.97
2549;BME280;1284;53.520;10.248;2023-02-19T13:14:02;101482.09;;;11.48;56.38
2549;BME280;1284;53.520;10.248;2023-02-19T13:16:31;101477.50;;;11.49;57.01
2549;BME280;1284;53.520;10.248;2023-02-19T13:19:01;101469.22;;;11.30;56.93
2549;BME280;1284;53.520;10.248;2023-02-19T13:21:33;101471.69;;;11.11;58.58
2549;BME280;1284;53.520;10.248;2023-02-19T13:24:25;101476.06;;;11.27;57.42
2549;BME280;1284;53.520;10.248;2023-02-19T13:32:33;101466.06;;;11.40;59.79
2549;BME280;1284;53.520;10.248;2023-02-19T13:38:08;101466.44;;;11.54;58.52
2549;BME280;1284;53.520;10.248;2023-02-19T13:40:38;101470.06;;;11.46;58.24
2549;BME280;1284;53.520;10.248;2023-02-19T13:43:21;101463.97;;;11.73;56.82
2549;BME280;1284;53.520;10.248;2023-02-19T13:45:56;101456.25;;;11.47;56.61
2549;BME280;1284;53.520;10.248;2023-02-19T13:50:49;101464.25;;;11.44;56.42
2549;BME280;1284;53.520;10.248;2023-02-19T13:53:49;101466.34;;;11.50;57.45
2549;BME280;1284;53.520;10.248;2023-02-19T14:14:46;101487.72;;;11.07;61.21
2549;BME280;1284;53.520;10.248;2023-02-19T14:23:22;101488.72;;;11.63;59.43
2549;BME280;1284;53.520;10.248;2023-02-19T14:25:57;101493.66;;;11.61;59.31
2549;BME280;1284;53.520;10.248;2023-02-19T14:28:29;101493.13;;;11.43;58.49
2549;BME280;1284;53.520;10.248;2023-02-19T14:31:20;101483.25;;;11.35;58.84
2549;BME280;1284;53.520;10.248;2023-02-19T14:33:52;101485.66;;;11.64;57.64
2549;BME280;1284;53.520;10.248;2023-02-19T14:36:41;101483.97;;;11.84;55.89
2549;BME280;1284;53.520;10.248;2023-02-19T14:39:18;101489.72;;;11.58;56.07
2549;BME280;1284;53.520;10.248;2023-02-19T14:41:49;101492.41;;;11.58;56.79
2549;BME280;1284;53.520;10.248;2023-02-19T14:44:23;101482.59;;;11.90;55.31
2549;BME280;1284;53.520;10.248;2023-02-19T14:47:05;101470.59;;;11.75;54.69
2549;BME280;1284;53.520;10.248;2023-02-19T14:52:03;101476.69;;;11.60;55.10
2549;BME280;1284;53.520;10.248;2023-02-19T14:54:42;101465.09;;;11.72;55.56
2549;BME280;1284;53.520;10.248;2023-02-19T14:57:51;101450.38;;;11.69;55.69
2549;BME280;1284;53.520;10.248;2023-02-19T15:02:49;101452.66;;;11.95;55.16
2549;BME280;1284;53.520;10.248;2023-02-19T15:05:21;101461.97;;;11.98;55.39
2549;BME280;1284;53.520;10.248;2023-02-19T15:07:49;101464.81;;;11.89;55.99
2549;BME280;1284;53.520;10.248;2023-02-19T15:10:15;101465.28;;;11.79;56.19
2549;BME280;1284;53.520;10.248;2023-02-19T15:12:58;101470.41;;;11.68;57.14
2549;BME280;1284;53.520;10.248;2023-02-19T15:15:25;101471.97;;;11.57;56.79
2549;BME280;1284;53.520;10.248;2023-02-19T15:17:53;101470.03;;;11.58;57.65
2549;BME280;1284;53.520;10.248;2023-02-19T15:20:21;101464.34;;;11.47;58.09
2549;BME280;1284;53.520;10.248;2023-02-19T15:22:48;101476.16;;;11.31;58.77
2549;BME280;1284;53.520;10.248;2023-02-19T15:25:22;101476.94;;;11.07;60.33
2549;BME280;1284;53.520;10.248;2023-02-19T15:27:49;101471.13;;;11.17;59.74
2549;BME280;1284;53.520;10.248;2023-02-19T15:30:24;101476.50;;;11.29;60.43
2549;BME280;1284;53.520;10.248;2023-02-19T15:33:00;101467.06;;;11.23;60.78
2549;BME280;1284;53.520;10.248;2023-02-19T15:35:26;101465.16;;;11.36;60.42
2549;BME280;1284;53.520;10.248;2023-02-19T15:37:53;101467.97;;;11.39;59.80
2549;BME280;1284;53.520;10.248;2023-02-19T15:40:25;101468.41;;;11.29;60.27
2549;BME280;1284;53.520;10.248;2023-02-19T15:42:53;101467.75;;;11.32;60.87
2549;BME280;1284;53.520;10.248;2023-02-19T15:45:22;101474.59;;;11.42;60.53
2549;BME280;1284;53.520;10.248;2023-02-19T15:47:53;101477.75;;;11.32;60.42
2549;BME280;1284;53.520;10.248;2023-02-19T15:52:56;101476.59;;;11.33;61.07
2549;BME280;1284;53.520;10.248;2023-02-19T15:55:34;101473.25;;;11.12;62.05
2549;BME280;1284;53.520;10.248;2023-02-19T15:58:10;101478.44;;;10.93;62.69
2549;BME280;1284;53.520;10.248;2023-02-19T16:00:45;101489.66;;;10.95;63.00
2549;BME280;1284;53.520;10.248;2023-02-19T16:03:22;101485.41;;;10.94;63.34
2549;BME280;1284;53.520;10.248;2023-02-19T16:06:09;101487.66;;;10.92;63.98
2549;BME280;1284;53.520;10.248;2023-02-19T16:08:37;101487.06;;;10.98;63.76
2549;BME280;1284;53.520;10.248;2023-02-19T16:11:06;101489.88;;;10.77;64.10
2549;BME280;1284;53.520;10.248;2023-02-19T16:13:50;101487.88;;;10.30;65.83
2549;BME280;1284;53.520;10.248;2023-02-19T16:16:25;101484.63;;;10.36;65.92
2549;BME280;1284;53.520;10.248;2023-02-19T16:18:52;101492.81;;;10.40;65.90
2549;BME280;1284;53.520;10.248;2023-02-19T16:21:22;101492.13;;;10.31;66.33
2549;BME280;1284;53.520;10.248;2023-02-19T16:23:52;101495.25;;;10.33;66.23
2549;BME280;1284;53.520;10.248;2023-02-19T16:26:23;101498.41;;;10.35;66.38
2549;BME280;1284;53.520;10.248;2023-02-19T16:28:53;101488.75;;;10.34;66.76
2549;BME280;1284;53.520;10.248;2023-02-19T16:31:22;101492.44;;;10.29;66.52
2549;BME280;1284;53.520;10.248;2023-02-19T16:33:49;101489.31;;;10.27;66.78